Terminal Aerodrome Forecast
Issued by NWS Melbourne, FL

Current Version | Previous Version | Text Only | Print | Product List | Glossary On
Versions: 1 2 3 4 5 6 7 8 9 10 11 12 13 14 15 16 17 18 19 20 21 22 23 24 25 26 27
000
FTUS42 KMLB 171123
TAFMCO
TAF
KMCO 171123Z 1712/1812 36008KT P6SM VCSH SCT008 BKN050 OVC080
      TEMPO 1712/1713 5SM SHRA BKN008
     FM171300 36011KT P6SM VCSH SCT012 BKN120
      TEMPO 1713/1715 BKN012
     FM171500 02013KT P6SM VCSH SCT025 BKN040
      TEMPO 1715/1718 3SM SHRA BKN025
     FM180300 36008KT P6SM SCT025 BKN050=

USA.gov is the U.S. government's official web portal to all federal, state and local government web resources and services.